sensor_id;sensor_type;location;lat;lon;timestamp;P1;durP1;ratioP1;P2;durP2;ratioP2
53925;SDS011;39836;52.754;6.866;2023-06-10T09:40:48;15.32;;;7.00;;
53925;SDS011;39836;52.754;6.866;2023-06-10T09:43:38;10.85;;;6.05;;
53925;SDS011;39836;52.754;6.866;2023-06-10T09:46:04;9.07;;;5.47;;
53925;SDS011;39836;52.754;6.866;2023-06-10T09:48:31;12.43;;;6.20;;
53925;SDS011;39836;52.754;6.866;2023-06-10T09:51:00;9.25;;;5.35;;
53925;SDS011;39836;52.754;6.866;2023-06-10T09:53:26;11.48;;;5.32;;
53925;SDS011;39836;52.754;6.866;2023-06-10T09:55:52;10.57;;;5.38;;
53925;SDS011;39836;52.754;6.866;2023-06-10T09:58:17;10.82;;;5.20;;
53925;SDS011;39836;52.754;6.866;2023-06-10T10:00:43;8.05;;;4.60;;
53925;SDS011;39836;52.754;6.866;2023-06-10T10:03:09;7.45;;;4.70;;
53925;SDS011;39836;52.754;6.866;2023-06-10T10:05:46;9.50;;;5.13;;
53925;SDS011;39836;52.754;6.866;2023-06-10T10:08:12;9.55;;;4.50;;
53925;SDS011;39836;52.754;6.866;2023-06-10T10:10:38;8.57;;;5.32;;
53925;SDS011;39836;52.754;6.866;2023-06-10T10:13:04;11.48;;;4.63;;
53925;SDS011;39836;52.754;6.866;2023-06-10T10:15:31;9.60;;;4.47;;
53925;SDS011;39836;52.754;6.866;2023-06-10T10:18:09;8.55;;;4.40;;
53925;SDS011;39836;52.754;6.866;2023-06-10T10:20:40;7.55;;;3.80;;
53925;SDS011;39836;52.754;6.866;2023-06-10T10:23:16;5.78;;;3.72;;
53925;SDS011;39836;52.754;6.866;2023-06-10T10:25:49;9.60;;;4.00;;
53925;SDS011;39836;52.754;6.866;2023-06-10T10:28:20;9.40;;;3.90;;
53925;SDS011;39836;52.754;6.866;2023-06-10T10:30:49;9.13;;;3.97;;
53925;SDS011;39836;52.754;6.866;2023-06-10T10:33:22;7.60;;;4.03;;
53925;SDS011;39836;52.754;6.866;2023-06-10T10:36:00;9.70;;;4.60;;
53925;SDS011;39836;52.754;6.866;2023-06-10T10:38:27;9.00;;;3.40;;
53925;SDS011;39836;52.754;6.866;2023-06-10T10:40:53;8.68;;;3.78;;
53925;SDS011;39836;52.754;6.866;2023-06-10T10:43:24;8.18;;;4.43;;
53925;SDS011;39836;52.754;6.866;2023-06-10T10:46:08;8.48;;;3.70;;
53925;SDS011;39836;52.754;6.866;2023-06-10T10:48:38;6.95;;;3.20;;
53925;SDS011;39836;52.754;6.866;2023-06-10T10:51:06;10.13;;;3.70;;
53925;SDS011;39836;52.754;6.866;2023-06-10T10:53:32;7.68;;;3.53;;
53925;SDS011;39836;52.754;6.866;2023-06-10T10:56:07;8.95;;;3.67;;
53925;SDS011;39836;52.754;6.866;2023-06-10T10:58:38;8.23;;;3.25;;
53925;SDS011;39836;52.754;6.866;2023-06-10T11:01:14;6.45;;;3.00;;
53925;SDS011;39836;52.754;6.866;2023-06-10T11:06:13;10.88;;;2.95;;
53925;SDS011;39836;52.754;6.866;2023-06-10T11:11:22;13.32;;;3.40;;
53925;SDS011;39836;52.754;6.866;2023-06-10T11:16:39;9.02;;;3.30;;
53925;SDS011;39836;52.754;6.866;2023-06-10T11:19:06;8.60;;;3.10;;
53925;SDS011;39836;52.754;6.866;2023-06-10T11:21:32;6.00;;;3.00;;
53925;SDS011;39836;52.754;6.866;2023-06-10T11:24:24;7.55;;;2.95;;
53925;SDS011;39836;52.754;6.866;2023-06-10T11:26:51;6.25;;;3.45;;
53925;SDS011;39836;52.754;6.866;2023-06-10T11:29:17;7.25;;;3.08;;
53925;SDS011;39836;52.754;6.866;2023-06-10T11:31:43;6.35;;;3.08;;
53925;SDS011;39836;52.754;6.866;2023-06-10T11:34:11;6.90;;;2.85;;
53925;SDS011;39836;52.754;6.866;2023-06-10T11:36:39;5.35;;;2.90;;
53925;SDS011;39836;52.754;6.866;2023-06-10T11:39:07;4.55;;;2.80;;
53925;SDS011;39836;52.754;6.866;2023-06-10T11:41:34;9.98;;;3.33;;
53925;SDS011;39836;52.754;6.866;2023-06-10T11:44:04;4.70;;;2.60;;
53925;SDS011;39836;52.754;6.866;2023-06-10T11:46:34;5.43;;;2.70;;
53925;SDS011;39836;52.754;6.866;2023-06-10T11:49:00;5.20;;;2.42;;
53925;SDS011;39836;52.754;6.866;2023-06-10T11:51:28;5.35;;;2.42;;
53925;SDS011;39836;52.754;6.866;2023-06-10T11:53:57;8.77;;;2.97;;
53925;SDS011;39836;52.754;6.866;2023-06-10T11:56:23;6.03;;;3.10;;
53925;SDS011;39836;52.754;6.866;2023-06-10T11:59:00;4.85;;;2.95;;
53925;SDS011;39836;52.754;6.866;2023-06-10T12:01:29;9.68;;;3.30;;
53925;SDS011;39836;52.754;6.866;2023-06-10T12:06:25;6.75;;;2.70;;
53925;SDS011;39836;52.754;6.866;2023-06-10T12:08:51;4.63;;;2.70;;
53925;SDS011;39836;52.754;6.866;2023-06-10T12:11:16;8.05;;;2.90;;
53925;SDS011;39836;52.754;6.866;2023-06-10T12:13:46;6.57;;;2.72;;
53925;SDS011;39836;52.754;6.866;2023-06-10T12:16:13;5.25;;;3.13;;
53925;SDS011;39836;52.754;6.866;2023-06-10T12:18:39;5.95;;;3.15;;
53925;SDS011;39836;52.754;6.866;2023-06-10T12:21:19;4.75;;;2.72;;
53925;SDS011;39836;52.754;6.866;2023-06-10T12:24:04;5.40;;;3.03;;
53925;SDS011;39836;52.754;6.866;2023-06-10T12:26:43;7.63;;;3.30;;
53925;SDS011;39836;52.754;6.866;2023-06-10T12:29:22;5.90;;;3.17;;
53925;SDS011;39836;52.754;6.866;2023-06-10T12:31:56;5.57;;;3.00;;
53925;SDS011;39836;52.754;6.866;2023-06-10T12:34:33;5.78;;;3.20;;
53925;SDS011;39836;52.754;6.866;2023-06-10T12:37:01;6.10;;;2.88;;
53925;SDS011;39836;52.754;6.866;2023-06-10T12:39:29;5.40;;;2.63;;
53925;SDS011;39836;52.754;6.866;2023-06-10T12:41:58;4.85;;;2.58;;
53925;SDS011;39836;52.754;6.866;2023-06-10T12:44:28;5.72;;;2.35;;
53925;SDS011;39836;52.754;6.866;2023-06-10T12:46:54;4.55;;;2.35;;
53925;SDS011;39836;52.754;6.866;2023-06-10T12:49:20;4.95;;;2.75;;
53925;SDS011;39836;52.754;6.866;2023-06-10T12:51:47;5.45;;;2.70;;
53925;SDS011;39836;52.754;6.866;2023-06-10T12:54:12;8.23;;;2.88;;
53925;SDS011;39836;52.754;6.866;2023-06-10T12:56:38;5.68;;;2.90;;
53925;SDS011;39836;52.754;6.866;2023-06-10T12:59:04;5.65;;;2.90;;
53925;SDS011;39836;52.754;6.866;2023-06-10T13:01:30;5.13;;;2.95;;
53925;SDS011;39836;52.754;6.866;2023-06-10T13:03:56;8.93;;;3.28;;
53925;SDS011;39836;52.754;6.866;2023-06-10T13:06:22;5.75;;;3.05;;
53925;SDS011;39836;52.754;6.866;2023-06-10T13:08:48;4.70;;;3.05;;
53925;SDS011;39836;52.754;6.866;2023-06-10T13:11:14;7.53;;;3.67;;
53925;SDS011;39836;52.754;6.866;2023-06-10T13:13:39;7.30;;;3.00;;
53925;SDS011;39836;52.754;6.866;2023-06-10T13:16:05;5.07;;;2.97;;
53925;SDS011;39836;52.754;6.866;2023-06-10T13:18:32;5.50;;;3.10;;
53925;SDS011;39836;52.754;6.866;2023-06-10T13:21:05;6.10;;;3.28;;
53925;SDS011;39836;52.754;6.866;2023-06-10T13:23:31;6.78;;;2.92;;
53925;SDS011;39836;52.754;6.866;2023-06-10T13:25:57;7.50;;;3.30;;
53925;SDS011;39836;52.754;6.866;2023-06-10T13:28:23;5.75;;;2.83;;
53925;SDS011;39836;52.754;6.866;2023-06-10T13:30:49;4.60;;;2.70;;
53925;SDS011;39836;52.754;6.866;2023-06-10T13:33:15;5.13;;;2.83;;
53925;SDS011;39836;52.754;6.866;2023-06-10T13:35:41;5.32;;;3.22;;
53925;SDS011;39836;52.754;6.866;2023-06-10T13:38:06;6.75;;;3.45;;
53925;SDS011;39836;52.754;6.866;2023-06-10T13:40:32;5.88;;;2.90;;
53925;SDS011;39836;52.754;6.866;2023-06-10T13:42:58;4.47;;;2.88;;
53925;SDS011;39836;52.754;6.866;2023-06-10T13:45:24;4.65;;;3.10;;
53925;SDS011;39836;52.754;6.866;2023-06-10T13:47:50;6.68;;;3.25;;
53925;SDS011;39836;52.754;6.866;2023-06-10T13:50:16;5.80;;;2.95;;
53925;SDS011;39836;52.754;6.866;2023-06-10T13:52:42;5.22;;;3.15;;
53925;SDS011;39836;52.754;6.866;2023-06-10T13:55:08;5.60;;;3.70;;
53925;SDS011;39836;52.754;6.866;2023-06-10T13:57:34;5.97;;;3.47;;
53925;SDS011;39836;52.754;6.866;2023-06-10T14:00:00;6.88;;;3.63;;
53925;SDS011;39836;52.754;6.866;2023-06-10T14:02:25;6.20;;;3.72;;
53925;SDS011;39836;52.754;6.866;2023-06-10T14:04:51;6.13;;;3.90;;
53925;SDS011;39836;52.754;6.866;2023-06-10T14:07:17;6.90;;;3.70;;
53925;SDS011;39836;52.754;6.866;2023-06-10T14:09:42;7.90;;;3.50;;
53925;SDS011;39836;52.754;6.866;2023-06-10T14:12:08;6.47;;;3.58;;
53925;SDS011;39836;52.754;6.866;2023-06-10T14:14:35;6.55;;;3.40;;
53925;SDS011;39836;52.754;6.866;2023-06-10T14:17:01;5.13;;;3.35;;
53925;SDS011;39836;52.754;6.866;2023-06-10T14:19:28;5.38;;;3.22;;
53925;SDS011;39836;52.754;6.866;2023-06-10T14:21:53;4.80;;;3.00;;
53925;SDS011;39836;52.754;6.866;2023-06-10T14:24:20;6.05;;;2.92;;
53925;SDS011;39836;52.754;6.866;2023-06-10T14:26:46;3.55;;;2.50;;
53925;SDS011;39836;52.754;6.866;2023-06-10T14:29:12;7.13;;;3.03;;
53925;SDS011;39836;52.754;6.866;2023-06-10T14:31:42;6.28;;;3.17;;
53925;SDS011;39836;52.754;6.866;2023-06-10T14:34:07;4.88;;;2.92;;
53925;SDS011;39836;52.754;6.866;2023-06-10T14:36:34;6.05;;;2.92;;
53925;SDS011;39836;52.754;6.866;2023-06-10T14:39:00;5.15;;;3.35;;
53925;SDS011;39836;52.754;6.866;2023-06-10T14:41:25;5.22;;;2.95;;
53925;SDS011;39836;52.754;6.866;2023-06-10T14:43:51;6.05;;;3.00;;
53925;SDS011;39836;52.754;6.866;2023-06-10T14:46:17;4.40;;;3.08;;
53925;SDS011;39836;52.754;6.866;2023-06-10T14:48:45;6.93;;;2.95;;
53925;SDS011;39836;52.754;6.866;2023-06-10T14:51:11;6.32;;;3.13;;
53925;SDS011;39836;52.754;6.866;2023-06-10T14:53:37;6.00;;;2.90;;
53925;SDS011;39836;52.754;6.866;2023-06-10T14:56:03;4.75;;;2.85;;
53925;SDS011;39836;52.754;6.866;2023-06-10T14:58:29;4.57;;;2.75;;
53925;SDS011;39836;52.754;6.866;2023-06-10T15:00:55;5.63;;;2.60;;
53925;SDS011;39836;52.754;6.866;2023-06-10T15:03:21;4.00;;;2.70;;
53925;SDS011;39836;52.754;6.866;2023-06-10T15:05:46;4.07;;;2.72;;
53925;SDS011;39836;52.754;6.866;2023-06-10T15:08:12;5.32;;;2.80;;
53925;SDS011;39836;52.754;6.866;2023-06-10T15:10:38;6.90;;;2.95;;
53925;SDS011;39836;52.754;6.866;2023-06-10T15:13:04;5.53;;;2.22;;
53925;SDS011;39836;52.754;6.866;2023-06-10T15:15:30;5.18;;;2.72;;
53925;SDS011;39836;52.754;6.866;2023-06-10T15:17:55;3.22;;;2.05;;
53925;SDS011;39836;52.754;6.866;2023-06-10T15:20:21;3.83;;;2.25;;
53925;SDS011;39836;52.754;6.866;2023-06-10T15:22:47;3.35;;;2.15;;
53925;SDS011;39836;52.754;6.866;2023-06-10T15:25:12;8.68;;;2.67;;
53925;SDS011;39836;52.754;6.866;2023-06-10T15:27:38;4.00;;;2.25;;
53925;SDS011;39836;52.754;6.866;2023-06-10T15:30:04;5.68;;;2.90;;
53925;SDS011;39836;52.754;6.866;2023-06-10T15:32:30;5.03;;;2.60;;
53925;SDS011;39836;52.754;6.866;2023-06-10T15:34:56;4.63;;;2.33;;
53925;SDS011;39836;52.754;6.866;2023-06-10T15:37:22;8.30;;;2.50;;
53925;SDS011;39836;52.754;6.866;2023-06-10T15:39:47;6.88;;;2.40;;
53925;SDS011;39836;52.754;6.866;2023-06-10T15:42:13;5.70;;;2.50;;
53925;SDS011;39836;52.754;6.866;2023-06-10T15:44:39;4.45;;;2.30;;
53925;SDS011;39836;52.754;6.866;2023-06-10T15:47:04;6.97;;;3.20;;
53925;SDS011;39836;52.754;6.866;2023-06-10T15:49:30;5.97;;;3.00;;
53925;SDS011;39836;52.754;6.866;2023-06-10T15:51:56;5.07;;;2.95;;
53925;SDS011;39836;52.754;6.866;2023-06-10T15:54:22;4.15;;;2.63;;
53925;SDS011;39836;52.754;6.866;2023-06-10T15:56:47;5.53;;;2.60;;
53925;SDS011;39836;52.754;6.866;2023-06-10T15:59:13;4.65;;;2.42;;
53925;SDS011;39836;52.754;6.866;2023-06-10T16:01:39;7.75;;;2.60;;
53925;SDS011;39836;52.754;6.866;2023-06-10T16:04:04;6.75;;;2.67;;
53925;SDS011;39836;52.754;6.866;2023-06-10T16:06:30;5.22;;;2.47;;
53925;SDS011;39836;52.754;6.866;2023-06-10T16:08:56;4.43;;;2.53;;
53925;SDS011;39836;52.754;6.866;2023-06-10T16:11:22;5.93;;;2.65;;
53925;SDS011;39836;52.754;6.866;2023-06-10T16:13:48;6.32;;;2.90;;
53925;SDS011;39836;52.754;6.866;2023-06-10T16:16:14;7.85;;;2.67;;
53925;SDS011;39836;52.754;6.866;2023-06-10T16:18:39;4.18;;;2.63;;
53925;SDS011;39836;52.754;6.866;2023-06-10T16:21:05;4.07;;;2.65;;
53925;SDS011;39836;52.754;6.866;2023-06-10T16:23:31;5.88;;;2.33;;
53925;SDS011;39836;52.754;6.866;2023-06-10T16:25:56;7.30;;;2.70;;
53925;SDS011;39836;52.754;6.866;2023-06-10T16:28:22;4.35;;;2.67;;
53925;SDS011;39836;52.754;6.866;2023-06-10T16:30:48;4.30;;;2.55;;
53925;SDS011;39836;52.754;6.866;2023-06-10T16:33:14;5.40;;;2.50;;
53925;SDS011;39836;52.754;6.866;2023-06-10T16:35:41;5.75;;;2.70;;
53925;SDS011;39836;52.754;6.866;2023-06-10T16:38:07;4.70;;;2.45;;
53925;SDS011;39836;52.754;6.866;2023-06-10T16:40:32;5.40;;;2.60;;
53925;SDS011;39836;52.754;6.866;2023-06-10T16:42:58;7.35;;;2.67;;
53925;SDS011;39836;52.754;6.866;2023-06-10T16:45:24;8.05;;;2.55;;
53925;SDS011;39836;52.754;6.866;2023-06-10T16:47:49;5.53;;;2.70;;
53925;SDS011;39836;52.754;6.866;2023-06-10T16:50:15;5.70;;;2.90;;
53925;SDS011;39836;52.754;6.866;2023-06-10T16:52:41;5.05;;;2.38;;
53925;SDS011;39836;52.754;6.866;2023-06-10T16:55:07;11.98;;;3.10;;
53925;SDS011;39836;52.754;6.866;2023-06-10T16:57:33;6.05;;;2.80;;
53925;SDS011;39836;52.754;6.866;2023-06-10T16:59:58;5.43;;;2.75;;
53925;SDS011;39836;52.754;6.866;2023-06-10T17:02:24;5.72;;;2.83;;
53925;SDS011;39836;52.754;6.866;2023-06-10T17:04:51;5.40;;;2.33;;
53925;SDS011;39836;52.754;6.866;2023-06-10T17:07:17;5.80;;;2.80;;
53925;SDS011;39836;52.754;6.866;2023-06-10T17:09:43;5.50;;;2.78;;
53925;SDS011;39836;52.754;6.866;2023-06-10T17:12:09;6.10;;;3.03;;
53925;SDS011;39836;52.754;6.866;2023-06-10T17:14:35;4.82;;;2.78;;
53925;SDS011;39836;52.754;6.866;2023-06-10T17:17:00;5.75;;;2.92;;
53925;SDS011;39836;52.754;6.866;2023-06-10T17:19:26;6.55;;;3.15;;
53925;SDS011;39836;52.754;6.866;2023-06-10T17:21:52;4.85;;;2.88;;
53925;SDS011;39836;52.754;6.866;2023-06-10T17:24:18;6.30;;;2.78;;
53925;SDS011;39836;52.754;6.866;2023-06-10T17:26:43;6.43;;;3.08;;
53925;SDS011;39836;52.754;6.866;2023-06-10T17:29:09;6.03;;;2.88;;
53925;SDS011;39836;52.754;6.866;2023-06-10T17:31:35;7.65;;;3.63;;
53925;SDS011;39836;52.754;6.866;2023-06-10T17:34:00;4.93;;;2.88;;
53925;SDS011;39836;52.754;6.866;2023-06-10T17:36:27;5.28;;;3.00;;
53925;SDS011;39836;52.754;6.866;2023-06-10T17:38:52;6.18;;;2.83;;
53925;SDS011;39836;52.754;6.866;2023-06-10T17:41:18;6.25;;;2.97;;
53925;SDS011;39836;52.754;6.866;2023-06-10T17:43:44;6.65;;;3.42;;
53925;SDS011;39836;52.754;6.866;2023-06-10T17:46:10;7.68;;;3.15;;
53925;SDS011;39836;52.754;6.866;2023-06-10T17:48:36;5.72;;;3.40;;
53925;SDS011;39836;52.754;6.866;2023-06-10T17:51:02;6.72;;;3.63;;
53925;SDS011;39836;52.754;6.866;2023-06-10T17:53:27;5.95;;;3.38;;
53925;SDS011;39836;52.754;6.866;2023-06-10T17:55:53;6.28;;;3.42;;
53925;SDS011;39836;52.754;6.866;2023-06-10T17:58:19;6.05;;;3.50;;
53925;SDS011;39836;52.754;6.866;2023-06-10T18:00:44;6.10;;;3.65;;
53925;SDS011;39836;52.754;6.866;2023-06-10T18:03:10;12.10;;;3.55;;
53925;SDS011;39836;52.754;6.866;2023-06-10T18:05:36;6.05;;;3.42;;
53925;SDS011;39836;52.754;6.866;2023-06-10T18:08:02;7.63;;;3.50;;
53925;SDS011;39836;52.754;6.866;2023-06-10T18:10:28;8.02;;;3.70;;
53925;SDS011;39836;52.754;6.866;2023-06-10T18:12:53;6.55;;;3.92;;
53925;SDS011;39836;52.754;6.866;2023-06-10T18:15:19;8.63;;;3.60;;
53925;SDS011;39836;52.754;6.866;2023-06-10T18:17:44;7.82;;;4.28;;
53925;SDS011;39836;52.754;6.866;2023-06-10T18:20:11;17.65;;;3.63;;
53925;SDS011;39836;52.754;6.866;2023-06-10T18:22:37;11.50;;;4.00;;
53925;SDS011;39836;52.754;6.866;2023-06-10T18:25:03;6.07;;;3.80;;
53925;SDS011;39836;52.754;6.866;2023-06-10T18:27:33;7.93;;;4.18;;
53925;SDS011;39836;52.754;6.866;2023-06-10T18:29:59;6.82;;;4.32;;
53925;SDS011;39836;52.754;6.866;2023-06-10T18:32:25;7.45;;;4.25;;
53925;SDS011;39836;52.754;6.866;2023-06-10T18:34:50;10.27;;;4.10;;
53925;SDS011;39836;52.754;6.866;2023-06-10T18:37:17;6.88;;;3.83;;
53925;SDS011;39836;52.754;6.866;2023-06-10T18:39:43;8.30;;;4.32;;
53925;SDS011;39836;52.754;6.866;2023-06-10T18:42:09;6.82;;;3.75;;
53925;SDS011;39836;52.754;6.866;2023-06-10T18:44:36;9.20;;;4.40;;
53925;SDS011;39836;52.754;6.866;2023-06-10T18:47:02;8.23;;;3.88;;
53925;SDS011;39836;52.754;6.866;2023-06-10T18:49:28;6.80;;;3.78;;
53925;SDS011;39836;52.754;6.866;2023-06-10T18:51:53;13.70;;;3.90;;
53925;SDS011;39836;52.754;6.866;2023-06-10T18:54:19;7.30;;;3.90;;
53925;SDS011;39836;52.754;6.866;2023-06-10T18:56:45;8.02;;;4.30;;
53925;SDS011;39836;52.754;6.866;2023-06-10T18:59:11;11.38;;;4.28;;
53925;SDS011;39836;52.754;6.866;2023-06-10T19:01:36;9.05;;;4.20;;
53925;SDS011;39836;52.754;6.866;2023-06-10T19:04:02;8.25;;;4.47;;
53925;SDS011;39836;52.754;6.866;2023-06-10T19:06:28;8.38;;;3.95;;
53925;SDS011;39836;52.754;6.866;2023-06-10T19:08:54;8.68;;;4.45;;
53925;SDS011;39836;52.754;6.866;2023-06-10T19:11:20;8.13;;;4.05;;
53925;SDS011;39836;52.754;6.866;2023-06-10T19:13:46;7.47;;;4.20;;
53925;SDS011;39836;52.754;6.866;2023-06-10T19:16:12;10.20;;;4.30;;
53925;SDS011;39836;52.754;6.866;2023-06-10T19:18:38;7.65;;;4.05;;
53925;SDS011;39836;52.754;6.866;2023-06-10T19:21:04;7.50;;;4.43;;
53925;SDS011;39836;52.754;6.866;2023-06-10T19:23:30;6.90;;;4.60;;
53925;SDS011;39836;52.754;6.866;2023-06-10T19:25:56;9.45;;;4.40;;
53925;SDS011;39836;52.754;6.866;2023-06-10T19:28:21;8.73;;;4.78;;
53925;SDS011;39836;52.754;6.866;2023-06-10T19:30:47;8.10;;;4.30;;
53925;SDS011;39836;52.754;6.866;2023-06-10T19:33:13;8.27;;;4.68;;
53925;SDS011;39836;52.754;6.866;2023-06-10T19:35:38;6.53;;;4.10;;
53925;SDS011;39836;52.754;6.866;2023-06-10T19:38:06;10.30;;;4.78;;
53925;SDS011;39836;52.754;6.866;2023-06-10T19:40:31;8.48;;;4.10;;
53925;SDS011;39836;52.754;6.866;2023-06-10T19:42:57;6.72;;;4.20;;
53925;SDS011;39836;52.754;6.866;2023-06-10T19:45:23;8.70;;;4.13;;
53925;SDS011;39836;52.754;6.866;2023-06-10T19:47:49;10.82;;;4.63;;
53925;SDS011;39836;52.754;6.866;2023-06-10T19:50:15;7.03;;;4.40;;
53925;SDS011;39836;52.754;6.866;2023-06-10T19:52:40;7.60;;;4.50;;
53925;SDS011;39836;52.754;6.866;2023-06-10T19:55:06;10.55;;;4.30;;
53925;SDS011;39836;52.754;6.866;2023-06-10T19:57:32;8.35;;;4.70;;
53925;SDS011;39836;52.754;6.866;2023-06-10T19:59:58;9.30;;;4.78;;
53925;SDS011;39836;52.754;6.866;2023-06-10T20:02:23;8.88;;;5.00;;
53925;SDS011;39836;52.754;6.866;2023-06-10T20:04:49;9.80;;;4.65;;
53925;SDS011;39836;52.754;6.866;2023-06-10T20:07:15;9.45;;;5.10;;
53925;SDS011;39836;52.754;6.866;2023-06-10T20:09:40;9.35;;;5.10;;
53925;SDS011;39836;52.754;6.866;2023-06-10T20:12:07;7.35;;;5.05;;
53925;SDS011;39836;52.754;6.866;2023-06-10T20:14:36;8.45;;;4.60;;
53925;SDS011;39836;52.754;6.866;2023-06-10T20:17:02;9.98;;;4.38;;
53925;SDS011;39836;52.754;6.866;2023-06-10T20:19:30;9.52;;;4.63;;
53925;SDS011;39836;52.754;6.866;2023-06-10T20:22:21;9.05;;;5.13;;
53925;SDS011;39836;52.754;6.866;2023-06-10T20:24:56;16.17;;;5.68;;
53925;SDS011;39836;52.754;6.866;2023-06-10T20:27:25;10.48;;;5.35;;
53925;SDS011;39836;52.754;6.866;2023-06-10T23:58:46;15.05;;;8.20;;
